sensor_id;sensor_type;location;lat;lon;timestamp;pressure;altitude;pressure_sealevel;temperature;humidity
25664;BME280;13522;50.018;20.014;2023-08-06T00:02:13;97447.33;;;19.47;100.00
25664;BME280;13522;50.018;20.014;2023-08-06T00:05:29;97439.24;;;19.47;100.00
25664;BME280;13522;50.018;20.014;2023-08-06T00:08:43;97443.11;;;19.51;100.00
25664;BME280;13522;50.018;20.014;2023-08-06T00:11:55;97438.20;;;19.48;100.00
25664;BME280;13522;50.018;20.014;2023-08-06T00:15:10;97443.11;;;19.51;100.00
25664;BME280;13522;50.018;20.014;2023-08-06T00:18:23;97414.67;;;19.55;100.00
25664;BME280;13522;50.018;20.014;2023-08-06T00:21:35;97401.34;;;19.49;100.00
25664;BME280;13522;50.018;20.014;2023-08-06T00:24:48;97415.00;;;19.47;100.00
25664;BME280;13522;50.018;20.014;2023-08-06T00:28:03;97409.17;;;19.50;100.00
25664;BME280;13522;50.018;20.014;2023-08-06T00:31:16;97409.03;;;19.45;100.00
25664;BME280;13522;50.018;20.014;2023-08-06T00:34:29;97414.42;;;19.45;100.00
25664;BME280;13522;50.018;20.014;2023-08-06T00:37:42;97408.44;;;19.43;100.00
25664;BME280;13522;50.018;20.014;2023-08-06T00:40:54;97390.66;;;19.42;100.00
25664;BME280;13522;50.018;20.014;2023-08-06T00:44:06;97374.51;;;19.42;100.00
25664;BME280;13522;50.018;20.014;2023-08-06T00:47:19;97314.20;;;19.43;100.00
25664;BME280;13522;50.018;20.014;2023-08-06T00:50:32;97309.40;;;19.45;100.00
25664;BME280;13522;50.018;20.014;2023-08-06T00:53:44;97306.95;;;19.44;100.00
25664;BME280;13522;50.018;20.014;2023-08-06T00:56:57;97198.91;;;19.40;100.00
25664;BME280;13522;50.018;20.014;2023-08-06T01:00:12;97221.39;;;19.34;100.00
25664;BME280;13522;50.018;20.014;2023-08-06T01:03:24;97311.48;;;19.32;100.00
25664;BME280;13522;50.018;20.014;2023-08-06T01:06:43;97328.70;;;19.31;100.00
25664;BME280;13522;50.018;20.014;2023-08-06T01:10:03;97327.42;;;19.33;100.00
25664;BME280;13522;50.018;20.014;2023-08-06T01:13:28;97332.81;;;19.33;100.00
25664;BME280;13522;50.018;20.014;2023-08-06T01:16:42;97329.42;;;19.38;100.00
25664;BME280;13522;50.018;20.014;2023-08-06T01:19:54;97339.95;;;19.39;100.00
25664;BME280;13522;50.018;20.014;2023-08-06T01:23:06;97322.77;;;19.40;100.00
25664;BME280;13522;50.018;20.014;2023-08-06T01:26:24;97308.58;;;19.33;100.00
25664;BME280;13522;50.018;20.014;2023-08-06T01:29:43;97309.16;;;19.35;100.00
25664;BME280;13522;50.018;20.014;2023-08-06T01:33:00;97307.55;;;19.34;100.00
25664;BME280;13522;50.018;20.014;2023-08-06T01:36:13;97298.64;;;19.34;100.00
25664;BME280;13522;50.018;20.014;2023-08-06T01:39:27;97290.77;;;19.32;100.00
25664;BME280;13522;50.018;20.014;2023-08-06T01:42:41;97283.89;;;19.36;100.00
25664;BME280;13522;50.018;20.014;2023-08-06T01:45:54;97274.75;;;19.37;100.00
25664;BME280;13522;50.018;20.014;2023-08-06T01:49:06;97270.53;;;19.41;100.00
25664;BME280;13522;50.018;20.014;2023-08-06T01:52:19;97261.88;;;19.39;100.00
25664;BME280;13522;50.018;20.014;2023-08-06T01:55:32;97268.42;;;19.43;100.00
25664;BME280;13522;50.018;20.014;2023-08-06T01:58:44;97258.48;;;19.44;100.00
25664;BME280;13522;50.018;20.014;2023-08-06T02:01:57;97258.83;;;19.47;100.00
25664;BME280;13522;50.018;20.014;2023-08-06T02:05:10;97257.45;;;19.45;100.00
25664;BME280;13522;50.018;20.014;2023-08-06T02:08:22;97251.23;;;19.44;100.00
25664;BME280;13522;50.018;20.014;2023-08-06T02:11:34;97241.50;;;19.43;100.00
25664;BME280;13522;50.018;20.014;2023-08-06T02:14:46;97235.32;;;19.43;100.00
25664;BME280;13522;50.018;20.014;2023-08-06T02:17:59;97229.11;;;19.42;100.00
25664;BME280;13522;50.018;20.014;2023-08-06T02:21:12;97224.30;;;19.44;100.00
25664;BME280;13522;50.018;20.014;2023-08-06T02:24:24;97238.35;;;19.46;100.00
25664;BME280;13522;50.018;20.014;2023-08-06T02:27:37;97232.39;;;19.44;100.00
25664;BME280;13522;50.018;20.014;2023-08-06T02:30:52;97230.52;;;19.45;100.00
25664;BME280;13522;50.018;20.014;2023-08-06T02:34:05;97226.41;;;19.42;100.00
25664;BME280;13522;50.018;20.014;2023-08-06T02:37:17;97217.52;;;19.42;100.00
25664;BME280;13522;50.018;20.014;2023-08-06T02:40:30;97216.93;;;19.40;100.00
25664;BME280;13522;50.018;20.014;2023-08-06T02:43:42;97199.03;;;19.34;100.00
25664;BME280;13522;50.018;20.014;2023-08-06T02:46:54;97194.56;;;19.39;100.00
25664;BME280;13522;50.018;20.014;2023-08-06T02:50:09;97200.53;;;19.41;100.00
25664;BME280;13522;50.018;20.014;2023-08-06T02:53:21;97192.94;;;19.38;100.00
25664;BME280;13522;50.018;20.014;2023-08-06T02:56:34;97199.95;;;19.39;100.00
25664;BME280;13522;50.018;20.014;2023-08-06T02:59:48;97205.91;;;19.41;100.00
25664;BME280;13522;50.018;20.014;2023-08-06T03:03:02;97209.68;;;19.40;100.00
25664;BME280;13522;50.018;20.014;2023-08-06T03:06:17;97212.61;;;19.39;100.00
25664;BME280;13522;50.018;20.014;2023-08-06T03:09:31;97207.23;;;19.39;100.00
25664;BME280;13522;50.018;20.014;2023-08-06T03:12:43;97206.41;;;19.38;100.00
25664;BME280;13522;50.018;20.014;2023-08-06T03:15:58;97205.91;;;19.41;100.00
25664;BME280;13522;50.018;20.014;2023-08-06T03:19:11;97205.91;;;19.41;100.00
25664;BME280;13522;50.018;20.014;2023-08-06T03:22:24;97201.36;;;19.42;100.00
25664;BME280;13522;50.018;20.014;2023-08-06T03:25:38;97187.65;;;19.43;100.00
25664;BME280;13522;50.018;20.014;2023-08-06T03:28:51;97176.88;;;19.43;100.00
25664;BME280;13522;50.018;20.014;2023-08-06T03:32:04;97176.88;;;19.43;100.00
25664;BME280;13522;50.018;20.014;2023-08-06T03:35:18;97175.59;;;19.46;100.00
25664;BME280;13522;50.018;20.014;2023-08-06T03:38:31;97169.38;;;19.45;100.00
25664;BME280;13522;50.018;20.014;2023-08-06T03:41:45;97171.03;;;19.46;100.00
25664;BME280;13522;50.018;20.014;2023-08-06T03:44:59;97164.11;;;19.50;100.00
25664;BME280;13522;50.018;20.014;2023-08-06T03:48:12;97156.62;;;19.52;100.00
25664;BME280;13522;50.018;20.014;2023-08-06T03:51:25;97153.92;;;19.52;100.00
25664;BME280;13522;50.018;20.014;2023-08-06T03:54:39;97137.52;;;19.54;100.00
25664;BME280;13522;50.018;20.014;2023-08-06T03:57:51;97136.12;;;19.51;100.00
25664;BME280;13522;50.018;20.014;2023-08-06T04:01:05;97125.34;;;19.51;100.00
25664;BME280;13522;50.018;20.014;2023-08-06T04:04:19;97119.50;;;19.54;100.00
25664;BME280;13522;50.018;20.014;2023-08-06T04:07:32;97119.50;;;19.54;100.00
25664;BME280;13522;50.018;20.014;2023-08-06T04:10:44;97115.16;;;19.53;100.00
25664;BME280;13522;50.018;20.014;2023-08-06T04:13:59;97119.50;;;19.54;100.00
25664;BME280;13522;50.018;20.014;2023-08-06T04:17:11;97115.73;;;19.55;100.00
25664;BME280;13522;50.018;20.014;2023-08-06T04:20:25;97113.28;;;19.54;100.00
25664;BME280;13522;50.018;20.014;2023-08-06T04:23:37;97108.73;;;19.54;100.00
25664;BME280;13522;50.018;20.014;2023-08-06T04:26:50;97106.61;;;19.56;100.00
25664;BME280;13522;50.018;20.014;2023-08-06T04:30:05;97108.23;;;19.57;100.00
25664;BME280;13522;50.018;20.014;2023-08-06T04:33:19;97114.19;;;19.59;100.00
25664;BME280;13522;50.018;20.014;2023-08-06T04:36:32;97111.03;;;19.62;100.00
25664;BME280;13522;50.018;20.014;2023-08-06T04:39:46;97111.03;;;19.62;100.00
25664;BME280;13522;50.018;20.014;2023-08-06T04:42:59;97113.16;;;19.60;100.00
25664;BME280;13522;50.018;20.014;2023-08-06T04:46:12;97112.00;;;19.56;100.00
25664;BME280;13522;50.018;20.014;2023-08-06T04:49:26;97104.16;;;19.55;100.00
25664;BME280;13522;50.018;20.014;2023-08-06T04:52:39;97110.34;;;19.55;100.00
25664;BME280;13522;50.018;20.014;2023-08-06T04:55:51;97108.73;;;19.54;100.00
25664;BME280;13522;50.018;20.014;2023-08-06T04:59:03;97094.69;;;19.52;100.00
25664;BME280;13522;50.018;20.014;2023-08-06T05:02:16;97101.22;;;19.56;100.00
25664;BME280;13522;50.018;20.014;2023-08-06T05:05:28;97092.07;;;19.57;100.00
25664;BME280;13522;50.018;20.014;2023-08-06T05:08:40;97086.47;;;19.59;100.00
25664;BME280;13522;50.018;20.014;2023-08-06T05:11:53;97077.56;;;19.58;100.00
25664;BME280;13522;50.018;20.014;2023-08-06T05:15:07;97072.75;;;19.60;100.00
25664;BME280;13522;50.018;20.014;2023-08-06T05:18:20;97065.50;;;19.61;100.00
25664;BME280;13522;50.018;20.014;2023-08-06T05:21:32;97066.21;;;19.56;100.00
25664;BME280;13522;50.018;20.014;2023-08-06T05:24:45;97057.56;;;19.54;100.00
25664;BME280;13522;50.018;20.014;2023-08-06T05:27:57;97050.77;;;19.52;100.00
25664;BME280;13522;50.018;20.014;2023-08-06T05:31:09;97015.97;;;19.34;100.00
25664;BME280;13522;50.018;20.014;2023-08-06T05:34:22;97048.91;;;19.52;100.00
25664;BME280;13522;50.018;20.014;2023-08-06T05:37:34;97049.48;;;19.54;100.00
25664;BME280;13522;50.018;20.014;2023-08-06T05:40:46;97034.94;;;19.55;100.00
25664;BME280;13522;50.018;20.014;2023-08-06T05:43:58;97027.44;;;19.57;100.00
25664;BME280;13522;50.018;20.014;2023-08-06T05:47:11;97026.64;;;19.57;100.00
25664;BME280;13522;50.018;20.014;2023-08-06T05:50:23;97028.27;;;19.58;100.00
25664;BME280;13522;50.018;20.014;2023-08-06T05:53:35;97017.23;;;19.59;100.00
25664;BME280;13522;50.018;20.014;2023-08-06T05:56:48;97012.93;;;19.58;100.00
25664;BME280;13522;50.018;20.014;2023-08-06T06:00:00;97007.61;;;19.63;100.00
25664;BME280;13522;50.018;20.014;2023-08-06T06:03:15;97015.23;;;19.66;100.00
25664;BME280;13522;50.018;20.014;2023-08-06T06:06:28;97005.03;;;19.68;100.00
25664;BME280;13522;50.018;20.014;2023-08-06T06:09:40;96997.41;;;19.65;100.00
25664;BME280;13522;50.018;20.014;2023-08-06T06:12:53;96991.55;;;19.68;100.00
25664;BME280;13522;50.018;20.014;2023-08-06T06:16:05;96988.11;;;19.73;100.00
25664;BME280;13522;50.018;20.014;2023-08-06T06:19:18;96979.14;;;19.67;100.00
25664;BME280;13522;50.018;20.014;2023-08-06T06:22:32;96978.66;;;19.70;100.00
25664;BME280;13522;50.018;20.014;2023-08-06T06:25:46;96978.66;;;19.70;100.00
25664;BME280;13522;50.018;20.014;2023-08-06T06:28:59;96985.34;;;19.68;100.00
25664;BME280;13522;50.018;20.014;2023-08-06T06:32:13;96963.08;;;19.72;100.00
25664;BME280;13522;50.018;20.014;2023-08-06T06:35:25;96965.52;;;19.74;100.00
25664;BME280;13522;50.018;20.014;2023-08-06T06:38:38;96957.19;;;19.75;100.00
25664;BME280;13522;50.018;20.014;2023-08-06T06:41:50;96958.01;;;19.76;100.00
25664;BME280;13522;50.018;20.014;2023-08-06T06:45:06;96960.95;;;19.74;100.00
25664;BME280;13522;50.018;20.014;2023-08-06T06:48:19;96959.05;;;19.75;100.00
25664;BME280;13522;50.018;20.014;2023-08-06T06:51:32;96956.14;;;19.76;100.00
25664;BME280;13522;50.018;20.014;2023-08-06T06:54:46;96957.69;;;19.72;100.00
25664;BME280;13522;50.018;20.014;2023-08-06T06:57:58;96956.14;;;19.76;100.00
25664;BME280;13522;50.018;20.014;2023-08-06T07:01:11;96955.06;;;19.77;100.00
25664;BME280;13522;50.018;20.014;2023-08-06T07:04:23;96962.00;;;19.73;100.00
25664;BME280;13522;50.018;20.014;2023-08-06T07:07:35;96910.33;;;19.43;100.00
25664;BME280;13522;50.018;20.014;2023-08-06T07:10:48;96960.60;;;19.71;100.00
25664;BME280;13522;50.018;20.014;2023-08-06T07:14:00;96965.77;;;19.72;100.00
25664;BME280;13522;50.018;20.014;2023-08-06T07:17:13;96961.93;;;19.68;100.00
25664;BME280;13522;50.018;20.014;2023-08-06T07:20:25;96959.23;;;19.68;100.00
25664;BME280;13522;50.018;20.014;2023-08-06T07:23:39;96960.85;;;19.69;100.00
25664;BME280;13522;50.018;20.014;2023-08-06T07:26:51;96966.17;;;19.64;100.00
25664;BME280;13522;50.018;20.014;2023-08-06T07:30:07;96954.32;;;19.65;100.00
25664;BME280;13522;50.018;20.014;2023-08-06T07:33:20;96955.56;;;19.74;100.00
25664;BME280;13522;50.018;20.014;2023-08-06T07:36:32;96961.17;;;19.73;100.00
25664;BME280;13522;50.018;20.014;2023-08-06T07:39:45;96975.56;;;19.78;100.00
25664;BME280;13522;50.018;20.014;2023-08-06T07:42:57;96984.22;;;19.80;100.00
25664;BME280;13522;50.018;20.014;2023-08-06T07:46:10;96997.12;;;19.78;100.00
25664;BME280;13522;50.018;20.014;2023-08-06T07:49:23;96990.88;;;19.61;100.00
25664;BME280;13522;50.018;20.014;2023-08-06T07:52:35;96995.15;;;19.29;100.00
25664;BME280;13522;50.018;20.014;2023-08-06T07:55:51;96996.30;;;19.05;100.00
25664;BME280;13522;50.018;20.014;2023-08-06T07:59:04;96997.05;;;18.89;100.00
25664;BME280;13522;50.018;20.014;2023-08-06T08:02:16;96989.73;;;18.73;100.00
25664;BME280;13522;50.018;20.014;2023-08-06T08:05:29;96985.20;;;18.62;100.00
25664;BME280;13522;50.018;20.014;2023-08-06T08:08:41;96986.61;;;18.53;100.00
25664;BME280;13522;50.018;20.014;2023-08-06T08:11:54;96984.98;;;18.52;100.00
25664;BME280;13522;50.018;20.014;2023-08-06T08:15:09;96973.87;;;18.48;100.00
25664;BME280;13522;50.018;20.014;2023-08-06T08:18:21;96982.88;;;18.54;100.00
25664;BME280;13522;50.018;20.014;2023-08-06T08:21:34;96980.64;;;18.39;100.00
25664;BME280;13522;50.018;20.014;2023-08-06T08:24:46;96998.30;;;18.24;100.00
25664;BME280;13522;50.018;20.014;2023-08-06T08:27:59;96999.34;;;18.11;100.00
25664;BME280;13522;50.018;20.014;2023-08-06T08:31:12;96992.36;;;17.98;100.00
25664;BME280;13522;50.018;20.014;2023-08-06T08:34:24;96997.25;;;18.01;100.00
25664;BME280;13522;50.018;20.014;2023-08-06T08:37:37;96999.70;;;17.91;100.00
25664;BME280;13522;50.018;20.014;2023-08-06T08:40:52;97002.86;;;17.88;100.00
25664;BME280;13522;50.018;20.014;2023-08-06T08:44:09;97015.56;;;17.81;100.00
25664;BME280;13522;50.018;20.014;2023-08-06T08:47:21;97017.66;;;17.79;100.00
25664;BME280;13522;50.018;20.014;2023-08-06T08:50:35;97017.42;;;17.81;100.00
25664;BME280;13522;50.018;20.014;2023-08-06T08:53:48;97024.19;;;17.72;100.00
25664;BME280;13522;50.018;20.014;2023-08-06T08:57:03;97013.56;;;17.77;100.00
25664;BME280;13522;50.018;20.014;2023-08-06T09:00:19;97003.39;;;17.67;100.00
25664;BME280;13522;50.018;20.014;2023-08-06T09:03:33;96995.48;;;17.72;100.00
25664;BME280;13522;50.018;20.014;2023-08-06T09:06:50;96982.64;;;17.74;100.00
25664;BME280;13522;50.018;20.014;2023-08-06T09:10:05;96985.23;;;17.92;100.00
25664;BME280;13522;50.018;20.014;2023-08-06T09:13:22;96990.81;;;17.91;100.00
25664;BME280;13522;50.018;20.014;2023-08-06T09:16:38;96988.26;;;18.07;100.00
25664;BME280;13522;50.018;20.014;2023-08-06T09:19:53;96977.62;;;18.12;100.00
25664;BME280;13522;50.018;20.014;2023-08-06T09:23:10;96973.42;;;18.28;100.00
25664;BME280;13522;50.018;20.014;2023-08-06T09:26:22;96974.81;;;18.19;100.00
25664;BME280;13522;50.018;20.014;2023-08-06T09:29:41;96985.80;;;18.29;100.00
25664;BME280;13522;50.018;20.014;2023-08-06T09:32:56;96996.20;;;18.26;100.00
25664;BME280;13522;50.018;20.014;2023-08-06T09:36:12;96997.25;;;18.01;100.00
25664;BME280;13522;50.018;20.014;2023-08-06T09:39:29;97008.48;;;17.98;100.00
25664;BME280;13522;50.018;20.014;2023-08-06T09:42:43;97011.75;;;18.00;100.00
25664;BME280;13522;50.018;20.014;2023-08-06T09:45:58;97007.89;;;17.96;100.00
25664;BME280;13522;50.018;20.014;2023-08-06T09:49:12;96999.70;;;17.91;100.00
25664;BME280;13522;50.018;20.014;2023-08-06T09:52:26;97009.61;;;17.91;100.00
25664;BME280;13522;50.018;20.014;2023-08-06T09:55:39;97013.13;;;17.91;100.00
25664;BME280;13522;50.018;20.014;2023-08-06T09:58:52;97018.58;;;17.73;100.00
25664;BME280;13522;50.018;20.014;2023-08-06T10:02:10;97022.78;;;17.69;100.00
25664;BME280;13522;50.018;20.014;2023-08-06T10:05:25;97037.38;;;17.73;100.00
25664;BME280;13522;50.018;20.014;2023-08-06T10:08:38;97026.29;;;17.70;100.00
25664;BME280;13522;50.018;20.014;2023-08-06T10:11:52;97037.27;;;17.68;100.00
25664;BME280;13522;50.018;20.014;2023-08-06T10:15:08;97035.26;;;17.64;100.00
25664;BME280;13522;50.018;20.014;2023-08-06T10:18:23;97025.67;;;17.56;100.00
25664;BME280;13522;50.018;20.014;2023-08-06T10:21:38;97023.23;;;17.55;100.00
25664;BME280;13522;50.018;20.014;2023-08-06T10:24:53;97020.90;;;17.58;100.00
25664;BME280;13522;50.018;20.014;2023-08-06T10:28:12;97028.48;;;17.61;100.00
25664;BME280;13522;50.018;20.014;2023-08-06T10:31:54;97023.44;;;17.53;100.00
25664;BME280;13522;50.018;20.014;2023-08-06T10:35:11;97036.16;;;17.28;100.00
25664;BME280;13522;50.018;20.014;2023-08-06T10:38:47;97038.25;;;17.26;100.00
25664;BME280;13522;50.018;20.014;2023-08-06T10:42:03;97033.72;;;17.26;100.00
25664;BME280;13522;50.018;20.014;2023-08-06T10:45:19;97026.34;;;17.22;100.00
25664;BME280;13522;50.018;20.014;2023-08-06T10:48:36;97025.79;;;17.31;100.00
25664;BME280;13522;50.018;20.014;2023-08-06T10:51:50;97029.66;;;17.35;100.00
25664;BME280;13522;50.018;20.014;2023-08-06T10:55:03;97033.98;;;17.37;100.00
25664;BME280;13522;50.018;20.014;2023-08-06T10:58:17;97037.34;;;17.32;100.00
25664;BME280;13522;50.018;20.014;2023-08-06T11:01:31;97032.89;;;17.26;100.00
25664;BME280;13522;50.018;20.014;2023-08-06T11:04:45;97030.20;;;17.26;100.00
25664;BME280;13522;50.018;20.014;2023-08-06T11:07:57;97022.78;;;17.40;100.00
25664;BME280;13522;50.018;20.014;2023-08-06T11:11:14;97034.81;;;17.37;100.00
25664;BME280;13522;50.018;20.014;2023-08-06T11:14:26;97033.84;;;17.31;100.00
25664;BME280;13522;50.018;20.014;2023-08-06T11:17:41;97043.30;;;17.34;100.00
25664;BME280;13522;50.018;20.014;2023-08-06T11:20:54;97044.25;;;17.10;100.00
25664;BME280;13522;50.018;20.014;2023-08-06T11:24:08;97051.88;;;16.95;100.00
25664;BME280;13522;50.018;20.014;2023-08-06T11:27:21;97057.91;;;16.72;100.00
25664;BME280;13522;50.018;20.014;2023-08-06T11:30:36;97065.29;;;16.77;100.00
25664;BME280;13522;50.018;20.014;2023-08-06T11:33:51;97075.28;;;16.70;100.00
25664;BME280;13522;50.018;20.014;2023-08-06T11:37:04;97069.92;;;16.70;100.00
25664;BME280;13522;50.018;20.014;2023-08-06T11:40:18;97065.29;;;16.77;100.00
25664;BME280;13522;50.018;20.014;2023-08-06T11:43:32;97050.69;;;16.73;100.00
25664;BME280;13522;50.018;20.014;2023-08-06T11:46:55;97059.20;;;16.70;100.00
25664;BME280;13522;50.018;20.014;2023-08-06T11:50:09;97057.91;;;16.72;100.00
25664;BME280;13522;50.018;20.014;2023-08-06T11:53:33;97068.03;;;16.70;100.00
25664;BME280;13522;50.018;20.014;2023-08-06T11:56:47;97073.69;;;16.62;100.00
25664;BME280;13522;50.018;20.014;2023-08-06T12:00:02;97071.70;;;16.58;100.00
25664;BME280;13522;50.018;20.014;2023-08-06T12:03:20;97075.86;;;16.54;100.00
25664;BME280;13522;50.018;20.014;2023-08-06T12:06:42;97072.23;;;16.41;100.00
25664;BME280;13522;50.018;20.014;2023-08-06T12:09:55;97082.13;;;16.41;100.00
25664;BME280;13522;50.018;20.014;2023-08-06T12:13:07;97089.20;;;16.35;100.00
25664;BME280;13522;50.018;20.014;2023-08-06T12:16:20;97082.73;;;16.18;100.00
25664;BME280;13522;50.018;20.014;2023-08-06T12:19:33;97091.65;;;16.12;100.00
25664;BME280;13522;50.018;20.014;2023-08-06T12:22:45;97101.98;;;16.09;100.00
25664;BME280;13522;50.018;20.014;2023-08-06T12:25:58;97112.55;;;16.04;100.00
25664;BME280;13522;50.018;20.014;2023-08-06T12:29:10;97113.79;;;16.01;100.00
25664;BME280;13522;50.018;20.014;2023-08-06T12:32:22;97120.35;;;16.05;100.00
25664;BME280;13522;50.018;20.014;2023-08-06T12:35:35;97112.31;;;16.05;100.00
25664;BME280;13522;50.018;20.014;2023-08-06T12:38:48;97078.98;;;15.77;100.00
25664;BME280;13522;50.018;20.014;2023-08-06T12:42:00;97091.88;;;16.11;100.00
25664;BME280;13522;50.018;20.014;2023-08-06T12:45:15;97097.95;;;16.00;100.00
25664;BME280;13522;50.018;20.014;2023-08-06T12:48:28;97117.63;;;16.12;100.00
25664;BME280;13522;50.018;20.014;2023-08-06T12:51:41;97115.59;;;16.07;100.00
25664;BME280;13522;50.018;20.014;2023-08-06T12:54:53;97131.89;;;16.06;100.00
25664;BME280;13522;50.018;20.014;2023-08-06T12:58:05;97141.20;;;15.97;100.00
25664;BME280;13522;50.018;20.014;2023-08-06T13:01:18;97141.78;;;16.05;100.00
25664;BME280;13522;50.018;20.014;2023-08-06T13:04:31;97140.22;;;15.91;100.00
25664;BME280;13522;50.018;20.014;2023-08-06T13:07:43;97152.59;;;15.92;100.00
25664;BME280;13522;50.018;20.014;2023-08-06T13:10:56;97163.30;;;15.92;100.00
25664;BME280;13522;50.018;20.014;2023-08-06T13:14:09;97165.38;;;15.90;100.00
25664;BME280;13522;50.018;20.014;2023-08-06T13:17:23;97171.03;;;15.69;100.00
25664;BME280;13522;50.018;20.014;2023-08-06T13:20:37;97180.52;;;15.65;100.00
25664;BME280;13522;50.018;20.014;2023-08-06T13:23:50;97184.05;;;15.59;100.00
25664;BME280;13522;50.018;20.014;2023-08-06T13:27:03;97181.19;;;15.60;100.00
25664;BME280;13522;50.018;20.014;2023-08-06T13:30:16;97186.70;;;15.66;100.00
25664;BME280;13522;50.018;20.014;2023-08-06T13:33:29;97186.30;;;15.69;100.00
25664;BME280;13522;50.018;20.014;2023-08-06T13:36:42;97194.11;;;15.70;100.00
25664;BME280;13522;50.018;20.014;2023-08-06T13:39:55;97196.53;;;15.78;100.00
25664;BME280;13522;50.018;20.014;2023-08-06T13:43:07;97190.80;;;15.75;100.00
25664;BME280;13522;50.018;20.014;2023-08-06T13:46:22;97184.61;;;15.74;100.00
25664;BME280;13522;50.018;20.014;2023-08-06T13:49:35;97189.11;;;15.80;100.00
25664;BME280;13522;50.018;20.014;2023-08-06T13:52:47;97171.14;;;15.87;100.00
25664;BME280;13522;50.018;20.014;2023-08-06T13:56:01;97171.52;;;15.91;100.00
25664;BME280;13522;50.018;20.014;2023-08-06T13:59:16;97179.78;;;15.89;100.00
25664;BME280;13522;50.018;20.014;2023-08-06T14:02:30;97189.22;;;15.98;100.00
25664;BME280;13522;50.018;20.014;2023-08-06T14:05:43;97187.17;;;15.94;100.00
25664;BME280;13522;50.018;20.014;2023-08-06T14:08:56;97207.34;;;15.96;100.00
25664;BME280;13522;50.018;20.014;2023-08-06T14:12:09;97215.98;;;15.98;100.00
25664;BME280;13522;50.018;20.014;2023-08-06T14:15:22;97210.58;;;16.05;100.00
25664;BME280;13522;50.018;20.014;2023-08-06T14:18:34;97209.30;;;16.14;100.00
25664;BME280;13522;50.018;20.014;2023-08-06T14:21:47;97231.87;;;16.24;100.00
25664;BME280;13522;50.018;20.014;2023-08-06T14:25:01;97237.90;;;16.20;100.00
25664;BME280;13522;50.018;20.014;2023-08-06T14:28:14;97241.22;;;16.15;100.00
25664;BME280;13522;50.018;20.014;2023-08-06T14:31:26;97234.36;;;16.26;100.00
25664;BME280;13522;50.018;20.014;2023-08-06T14:34:39;97238.25;;;16.30;100.00
25664;BME280;13522;50.018;20.014;2023-08-06T14:37:52;97246.31;;;16.23;100.00
25664;BME280;13522;50.018;20.014;2023-08-06T14:41:07;97237.93;;;16.13;100.00
25664;BME280;13522;50.018;20.014;2023-08-06T14:44:19;97231.74;;;16.13;100.00
25664;BME280;13522;50.018;20.014;2023-08-06T14:47:31;97222.47;;;16.15;100.00
25664;BME280;13522;50.018;20.014;2023-08-06T14:50:44;97231.87;;;16.24;100.00
25664;BME280;13522;50.018;20.014;2023-08-06T14:53:56;97226.44;;;16.37;100.00
25664;BME280;13522;50.018;20.014;2023-08-06T14:57:11;97229.66;;;16.46;100.00
25664;BME280;13522;50.018;20.014;2023-08-06T15:00:25;97224.62;;;16.63;100.00
25664;BME280;13522;50.018;20.014;2023-08-06T15:03:37;97234.96;;;16.59;100.00
25664;BME280;13522;50.018;20.014;2023-08-06T15:06:50;97237.42;;;16.61;100.00
25664;BME280;13522;50.018;20.014;2023-08-06T15:10:04;97250.22;;;16.59;100.00
25664;BME280;13522;50.018;20.014;2023-08-06T15:13:20;97249.39;;;16.58;100.00
25664;BME280;13522;50.018;20.014;2023-08-06T15:16:33;97266.34;;;16.52;100.00
25664;BME280;13522;50.018;20.014;2023-08-06T15:19:46;97267.16;;;16.53;100.00
25664;BME280;13522;50.018;20.014;2023-08-06T15:22:58;97281.96;;;16.62;100.00
25664;BME280;13522;50.018;20.014;2023-08-06T15:26:11;97303.06;;;16.52;100.00
25664;BME280;13522;50.018;20.014;2023-08-06T15:29:23;97308.42;;;16.45;100.00
25664;BME280;13522;50.018;20.014;2023-08-06T15:32:36;97307.17;;;16.47;100.00
25664;BME280;13522;50.018;20.014;2023-08-06T15:35:51;97305.30;;;16.55;100.00
25664;BME280;13522;50.018;20.014;2023-08-06T15:39:04;97311.92;;;16.45;100.00
25664;BME280;13522;50.018;20.014;2023-08-06T15:42:16;97322.84;;;16.44;100.00
25664;BME280;13522;50.018;20.014;2023-08-06T15:45:28;97323.26;;;16.47;100.00
25664;BME280;13522;50.018;20.014;2023-08-06T15:48:41;97329.03;;;16.44;100.00
25664;BME280;13522;50.018;20.014;2023-08-06T15:51:54;97336.47;;;16.49;100.00
25664;BME280;13522;50.018;20.014;2023-08-06T15:55:09;97341.05;;;16.35;100.00
25664;BME280;13522;50.018;20.014;2023-08-06T15:58:22;97343.53;;;16.30;100.00
25664;BME280;13522;50.018;20.014;2023-08-06T16:01:34;97347.67;;;16.26;100.00
25664;BME280;13522;50.018;20.014;2023-08-06T16:04:47;97346.02;;;16.32;100.00
25664;BME280;13522;50.018;20.014;2023-08-06T16:08:01;97349.31;;;16.34;100.00
25664;BME280;13522;50.018;20.014;2023-08-06T16:11:13;97366.84;;;16.30;100.00
25664;BME280;13522;50.018;20.014;2023-08-06T16:14:26;97367.86;;;16.29;100.00
25664;BME280;13522;50.018;20.014;2023-08-06T16:17:38;97372.22;;;16.23;100.00
25664;BME280;13522;50.018;20.014;2023-08-06T16:20:53;97377.98;;;16.20;100.00
25664;BME280;13522;50.018;20.014;2023-08-06T16:24:06;97374.07;;;16.23;100.00
25664;BME280;13522;50.018;20.014;2023-08-06T16:27:19;97366.47;;;16.20;100.00
25664;BME280;13522;50.018;20.014;2023-08-06T16:30:32;97374.30;;;16.21;100.00
25664;BME280;13522;50.018;20.014;2023-08-06T16:33:44;97375.53;;;16.19;100.00
25664;BME280;13522;50.018;20.014;2023-08-06T16:36:58;97374.53;;;16.13;100.00
25664;BME280;13522;50.018;20.014;2023-08-06T16:40:11;97374.14;;;16.10;100.00